sensor_id;sensor_type;location;lat;lon;timestamp;temperature;humidity
18868;DHT22;9563;49.240;9.088;2022-11-09T00:01:25;11.30;99.90
18868;DHT22;9563;49.240;9.088;2022-11-09T00:03:53;11.30;99.90
18868;DHT22;9563;49.240;9.088;2022-11-09T00:06:21;11.40;99.90
18868;DHT22;9563;49.240;9.088;2022-11-09T00:08:48;11.40;99.90
18868;DHT22;9563;49.240;9.088;2022-11-09T00:11:15;11.50;99.90
18868;DHT22;9563;49.240;9.088;2022-11-09T00:13:42;11.50;99.90
18868;DHT22;9563;49.240;9.088;2022-11-09T00:16:13;11.60;99.90
18868;DHT22;9563;49.240;9.088;2022-11-09T00:18:40;11.60;99.90
18868;DHT22;9563;49.240;9.088;2022-11-09T00:21:13;11.70;99.90
18868;DHT22;9563;49.240;9.088;2022-11-09T00:23:40;11.70;99.90
18868;DHT22;9563;49.240;9.088;2022-11-09T00:26:08;11.70;99.90
18868;DHT22;9563;49.240;9.088;2022-11-09T00:28:36;11.70;99.90
18868;DHT22;9563;49.240;9.088;2022-11-09T00:31:04;11.80;99.90
18868;DHT22;9563;49.240;9.088;2022-11-09T00:33:33;11.80;99.90
18868;DHT22;9563;49.240;9.088;2022-11-09T00:36:03;11.80;99.90
18868;DHT22;9563;49.240;9.088;2022-11-09T00:38:33;11.80;99.90
18868;DHT22;9563;49.240;9.088;2022-11-09T00:41:00;11.90;99.90
18868;DHT22;9563;49.240;9.088;2022-11-09T00:43:27;11.80;99.90
18868;DHT22;9563;49.240;9.088;2022-11-09T00:45:54;11.80;99.90
18868;DHT22;9563;49.240;9.088;2022-11-09T00:48:21;11.80;99.90
18868;DHT22;9563;49.240;9.088;2022-11-09T00:50:50;11.80;99.90
18868;DHT22;9563;49.240;9.088;2022-11-09T00:53:17;11.80;99.90
18868;DHT22;9563;49.240;9.088;2022-11-09T00:55:52;11.80;99.90
18868;DHT22;9563;49.240;9.088;2022-11-09T00:58:20;11.80;99.90
18868;DHT22;9563;49.240;9.088;2022-11-09T01:00:47;11.80;99.90
18868;DHT22;9563;49.240;9.088;2022-11-09T01:03:13;11.80;99.90
18868;DHT22;9563;49.240;9.088;2022-11-09T01:05:40;11.80;99.90
18868;DHT22;9563;49.240;9.088;2022-11-09T01:08:09;11.80;99.90
18868;DHT22;9563;49.240;9.088;2022-11-09T01:10:39;11.80;99.90
18868;DHT22;9563;49.240;9.088;2022-11-09T01:13:06;11.80;99.90
18868;DHT22;9563;49.240;9.088;2022-11-09T01:15:33;11.80;99.90
18868;DHT22;9563;49.240;9.088;2022-11-09T01:18:01;11.80;99.90
18868;DHT22;9563;49.240;9.088;2022-11-09T01:20:27;11.80;99.90
18868;DHT22;9563;49.240;9.088;2022-11-09T01:22:54;11.80;99.90
18868;DHT22;9563;49.240;9.088;2022-11-09T01:25:23;11.80;99.90
18868;DHT22;9563;49.240;9.088;2022-11-09T01:27:50;11.80;99.90
18868;DHT22;9563;49.240;9.088;2022-11-09T01:30:17;11.70;99.90
18868;DHT22;9563;49.240;9.088;2022-11-09T01:32:44;11.70;99.90
18868;DHT22;9563;49.240;9.088;2022-11-09T01:35:11;11.70;99.90
18868;DHT22;9563;49.240;9.088;2022-11-09T01:37:37;11.70;99.90
18868;DHT22;9563;49.240;9.088;2022-11-09T01:40:05;11.60;99.90
18868;DHT22;9563;49.240;9.088;2022-11-09T01:42:36;11.50;99.90
18868;DHT22;9563;49.240;9.088;2022-11-09T01:45:28;11.50;99.90
18868;DHT22;9563;49.240;9.088;2022-11-09T01:48:00;11.40;99.90
18868;DHT22;9563;49.240;9.088;2022-11-09T01:50:36;11.40;99.90
18868;DHT22;9563;49.240;9.088;2022-11-09T01:53:08;11.30;99.90
18868;DHT22;9563;49.240;9.088;2022-11-09T01:55:36;11.30;99.90
18868;DHT22;9563;49.240;9.088;2022-11-09T01:58:07;11.30;99.90
18868;DHT22;9563;49.240;9.088;2022-11-09T02:00:37;11.40;99.90
18868;DHT22;9563;49.240;9.088;2022-11-09T02:03:11;11.30;99.90
18868;DHT22;9563;49.240;9.088;2022-11-09T02:05:39;11.40;99.90
18868;DHT22;9563;49.240;9.088;2022-11-09T02:08:08;11.40;99.90
18868;DHT22;9563;49.240;9.088;2022-11-09T02:10:42;11.40;99.90
18868;DHT22;9563;49.240;9.088;2022-11-09T02:13:15;11.30;99.90
18868;DHT22;9563;49.240;9.088;2022-11-09T02:15:43;11.40;99.90
18868;DHT22;9563;49.240;9.088;2022-11-09T02:18:10;11.40;99.90
18868;DHT22;9563;49.240;9.088;2022-11-09T02:20:46;11.30;99.90
18868;DHT22;9563;49.240;9.088;2022-11-09T02:23:14;11.30;99.90
18868;DHT22;9563;49.240;9.088;2022-11-09T02:25:44;11.30;99.90
18868;DHT22;9563;49.240;9.088;2022-11-09T02:28:12;11.30;99.90
18868;DHT22;9563;49.240;9.088;2022-11-09T02:30:41;11.30;99.90
18868;DHT22;9563;49.240;9.088;2022-11-09T02:33:08;11.20;99.90
18868;DHT22;9563;49.240;9.088;2022-11-09T02:35:35;11.20;99.90
18868;DHT22;9563;49.240;9.088;2022-11-09T02:38:05;11.20;99.90
18868;DHT22;9563;49.240;9.088;2022-11-09T02:40:36;11.10;99.90
18868;DHT22;9563;49.240;9.088;2022-11-09T02:43:06;11.20;99.90
18868;DHT22;9563;49.240;9.088;2022-11-09T02:45:34;11.10;99.90
18868;DHT22;9563;49.240;9.088;2022-11-09T02:48:02;11.20;99.90
18868;DHT22;9563;49.240;9.088;2022-11-09T02:50:29;11.10;99.90
18868;DHT22;9563;49.240;9.088;2022-11-09T02:52:56;11.10;99.90
18868;DHT22;9563;49.240;9.088;2022-11-09T02:55:24;11.10;99.90
18868;DHT22;9563;49.240;9.088;2022-11-09T02:57:51;11.10;99.90
18868;DHT22;9563;49.240;9.088;2022-11-09T03:00:18;11.10;99.90
18868;DHT22;9563;49.240;9.088;2022-11-09T03:02:45;11.20;99.90
18868;DHT22;9563;49.240;9.088;2022-11-09T03:05:12;11.10;99.90
18868;DHT22;9563;49.240;9.088;2022-11-09T03:07:39;11.20;99.90
18868;DHT22;9563;49.240;9.088;2022-11-09T03:10:06;11.20;99.90
18868;DHT22;9563;49.240;9.088;2022-11-09T03:12:34;11.20;99.90
18868;DHT22;9563;49.240;9.088;2022-11-09T03:15:05;11.20;99.90
18868;DHT22;9563;49.240;9.088;2022-11-09T03:17:32;11.20;99.90
18868;DHT22;9563;49.240;9.088;2022-11-09T03:19:59;11.20;99.90
18868;DHT22;9563;49.240;9.088;2022-11-09T03:22:27;11.20;99.90
18868;DHT22;9563;49.240;9.088;2022-11-09T03:24:54;11.20;99.90
18868;DHT22;9563;49.240;9.088;2022-11-09T03:27:21;11.20;99.90
18868;DHT22;9563;49.240;9.088;2022-11-09T03:29:50;11.20;99.90
18868;DHT22;9563;49.240;9.088;2022-11-09T03:32:17;11.20;99.90
18868;DHT22;9563;49.240;9.088;2022-11-09T03:34:44;11.20;99.90
18868;DHT22;9563;49.240;9.088;2022-11-09T03:37:11;11.20;99.90
18868;DHT22;9563;49.240;9.088;2022-11-09T03:39:38;11.20;99.90
18868;DHT22;9563;49.240;9.088;2022-11-09T03:42:04;11.10;99.90
18868;DHT22;9563;49.240;9.088;2022-11-09T03:44:31;11.10;99.90
18868;DHT22;9563;49.240;9.088;2022-11-09T03:47:00;11.10;99.90
18868;DHT22;9563;49.240;9.088;2022-11-09T03:49:27;11.10;99.90
18868;DHT22;9563;49.240;9.088;2022-11-09T03:51:54;11.10;99.90
18868;DHT22;9563;49.240;9.088;2022-11-09T03:54:21;11.10;99.90
18868;DHT22;9563;49.240;9.088;2022-11-09T03:56:48;11.10;99.90
18868;DHT22;9563;49.240;9.088;2022-11-09T03:59:15;11.10;99.90
18868;DHT22;9563;49.240;9.088;2022-11-09T04:01:42;11.10;99.90
18868;DHT22;9563;49.240;9.088;2022-11-09T04:04:10;11.20;99.90
18868;DHT22;9563;49.240;9.088;2022-11-09T04:06:37;11.20;99.90
18868;DHT22;9563;49.240;9.088;2022-11-09T04:09:04;11.20;99.90
18868;DHT22;9563;49.240;9.088;2022-11-09T04:11:31;11.20;99.90
18868;DHT22;9563;49.240;9.088;2022-11-09T04:13:58;11.10;99.90
18868;DHT22;9563;49.240;9.088;2022-11-09T04:16:25;11.10;99.90
18868;DHT22;9563;49.240;9.088;2022-11-09T04:18:51;11.20;99.90
18868;DHT22;9563;49.240;9.088;2022-11-09T04:21:20;11.10;99.90
18868;DHT22;9563;49.240;9.088;2022-11-09T04:23:47;11.10;99.90
18868;DHT22;9563;49.240;9.088;2022-11-09T04:26:14;11.10;99.90
18868;DHT22;9563;49.240;9.088;2022-11-09T04:28:41;11.10;99.90
18868;DHT22;9563;49.240;9.088;2022-11-09T04:31:08;11.10;99.90
18868;DHT22;9563;49.240;9.088;2022-11-09T04:33:35;11.10;99.90
18868;DHT22;9563;49.240;9.088;2022-11-09T04:36:02;11.10;99.90
18868;DHT22;9563;49.240;9.088;2022-11-09T04:38:31;11.10;99.90
18868;DHT22;9563;49.240;9.088;2022-11-09T04:41:01;11.10;99.90
18868;DHT22;9563;49.240;9.088;2022-11-09T04:43:28;11.20;99.90
18868;DHT22;9563;49.240;9.088;2022-11-09T04:45:58;11.20;99.90
18868;DHT22;9563;49.240;9.088;2022-11-09T04:48:25;11.20;99.90
18868;DHT22;9563;49.240;9.088;2022-11-09T04:50:57;11.10;99.90
18868;DHT22;9563;49.240;9.088;2022-11-09T04:53:24;11.10;99.90
18868;DHT22;9563;49.240;9.088;2022-11-09T04:55:52;11.20;99.90
18868;DHT22;9563;49.240;9.088;2022-11-09T04:58:19;11.20;99.90
18868;DHT22;9563;49.240;9.088;2022-11-09T05:00:46;11.20;99.90
18868;DHT22;9563;49.240;9.088;2022-11-09T05:03:13;11.20;99.90
18868;DHT22;9563;49.240;9.088;2022-11-09T05:05:40;11.20;99.90
18868;DHT22;9563;49.240;9.088;2022-11-09T05:08:08;11.10;99.90
18868;DHT22;9563;49.240;9.088;2022-11-09T05:10:35;11.10;99.90
18868;DHT22;9563;49.240;9.088;2022-11-09T05:13:05;11.10;99.90
18868;DHT22;9563;49.240;9.088;2022-11-09T05:15:34;11.00;99.90
18868;DHT22;9563;49.240;9.088;2022-11-09T05:18:01;11.10;99.90
18868;DHT22;9563;49.240;9.088;2022-11-09T05:20:28;11.00;99.90
18868;DHT22;9563;49.240;9.088;2022-11-09T05:22:56;11.00;99.90
18868;DHT22;9563;49.240;9.088;2022-11-09T05:25:41;11.00;99.90
18868;DHT22;9563;49.240;9.088;2022-11-09T05:28:10;11.10;99.90
18868;DHT22;9563;49.240;9.088;2022-11-09T05:30:37;11.00;99.90
18868;DHT22;9563;49.240;9.088;2022-11-09T05:33:04;11.00;99.90
18868;DHT22;9563;49.240;9.088;2022-11-09T05:35:32;10.90;99.90
18868;DHT22;9563;49.240;9.088;2022-11-09T05:37:59;10.90;99.90
18868;DHT22;9563;49.240;9.088;2022-11-09T05:40:26;10.90;99.90
18868;DHT22;9563;49.240;9.088;2022-11-09T05:42:53;10.90;99.90
18868;DHT22;9563;49.240;9.088;2022-11-09T05:45:22;10.90;99.90
18868;DHT22;9563;49.240;9.088;2022-11-09T05:47:50;10.90;99.90
18868;DHT22;9563;49.240;9.088;2022-11-09T05:50:18;10.90;99.90
18868;DHT22;9563;49.240;9.088;2022-11-09T05:52:44;10.90;99.90
18868;DHT22;9563;49.240;9.088;2022-11-09T05:55:11;10.90;99.90
18868;DHT22;9563;49.240;9.088;2022-11-09T05:57:38;10.80;99.90
18868;DHT22;9563;49.240;9.088;2022-11-09T06:00:07;10.90;99.90
18868;DHT22;9563;49.240;9.088;2022-11-09T06:02:35;10.90;99.90
18868;DHT22;9563;49.240;9.088;2022-11-09T06:05:02;10.90;99.90
18868;DHT22;9563;49.240;9.088;2022-11-09T06:07:29;10.90;99.90
18868;DHT22;9563;49.240;9.088;2022-11-09T06:09:55;10.90;99.90
18868;DHT22;9563;49.240;9.088;2022-11-09T06:12:22;10.90;99.90
18868;DHT22;9563;49.240;9.088;2022-11-09T06:14:49;10.90;99.90
18868;DHT22;9563;49.240;9.088;2022-11-09T06:17:16;10.90;99.90
18868;DHT22;9563;49.240;9.088;2022-11-09T06:19:44;10.90;99.90
18868;DHT22;9563;49.240;9.088;2022-11-09T06:22:11;10.90;99.90
18868;DHT22;9563;49.240;9.088;2022-11-09T06:24:38;10.90;99.90
18868;DHT22;9563;49.240;9.088;2022-11-09T06:27:05;10.90;99.90
18868;DHT22;9563;49.240;9.088;2022-11-09T06:29:32;10.90;99.90
18868;DHT22;9563;49.240;9.088;2022-11-09T06:31:59;10.90;99.90
18868;DHT22;9563;49.240;9.088;2022-11-09T06:34:26;10.90;99.90
18868;DHT22;9563;49.240;9.088;2022-11-09T06:36:56;11.00;99.90
18868;DHT22;9563;49.240;9.088;2022-11-09T06:39:22;11.10;99.90
18868;DHT22;9563;49.240;9.088;2022-11-09T06:41:49;11.10;99.90
18868;DHT22;9563;49.240;9.088;2022-11-09T06:44:16;11.10;99.90
18868;DHT22;9563;49.240;9.088;2022-11-09T06:46:43;11.20;99.90
18868;DHT22;9563;49.240;9.088;2022-11-09T06:49:10;11.10;99.90
18868;DHT22;9563;49.240;9.088;2022-11-09T06:51:39;11.20;99.90
18868;DHT22;9563;49.240;9.088;2022-11-09T06:54:07;11.20;99.90
18868;DHT22;9563;49.240;9.088;2022-11-09T06:56:34;11.20;99.90
18868;DHT22;9563;49.240;9.088;2022-11-09T06:59:01;11.20;99.90
18868;DHT22;9563;49.240;9.088;2022-11-09T07:01:28;11.20;99.90
18868;DHT22;9563;49.240;9.088;2022-11-09T07:03:55;11.30;99.90
18868;DHT22;9563;49.240;9.088;2022-11-09T07:06:22;11.30;99.90
18868;DHT22;9563;49.240;9.088;2022-11-09T07:08:52;11.30;99.90
18868;DHT22;9563;49.240;9.088;2022-11-09T07:11:21;11.40;99.90
18868;DHT22;9563;49.240;9.088;2022-11-09T07:13:48;11.40;99.90
18868;DHT22;9563;49.240;9.088;2022-11-09T07:16:15;11.40;99.90
18868;DHT22;9563;49.240;9.088;2022-11-09T07:18:43;11.40;99.90
18868;DHT22;9563;49.240;9.088;2022-11-09T07:21:11;11.40;99.90
18868;DHT22;9563;49.240;9.088;2022-11-09T07:23:38;11.40;99.90
18868;DHT22;9563;49.240;9.088;2022-11-09T07:26:05;11.40;99.90
18868;DHT22;9563;49.240;9.088;2022-11-09T07:28:34;11.40;99.90
18868;DHT22;9563;49.240;9.088;2022-11-09T07:31:01;11.40;99.90
18868;DHT22;9563;49.240;9.088;2022-11-09T07:33:27;11.40;99.90
18868;DHT22;9563;49.240;9.088;2022-11-09T07:35:58;11.40;99.90
18868;DHT22;9563;49.240;9.088;2022-11-09T07:38:25;11.40;99.90
18868;DHT22;9563;49.240;9.088;2022-11-09T07:40:53;11.40;99.90
18868;DHT22;9563;49.240;9.088;2022-11-09T07:43:20;11.50;99.90
18868;DHT22;9563;49.240;9.088;2022-11-09T07:45:48;11.50;99.90
18868;DHT22;9563;49.240;9.088;2022-11-09T07:48:15;11.40;99.90
18868;DHT22;9563;49.240;9.088;2022-11-09T07:50:42;11.40;99.90
18868;DHT22;9563;49.240;9.088;2022-11-09T07:53:12;11.40;99.90
18868;DHT22;9563;49.240;9.088;2022-11-09T07:55:40;11.40;99.90
18868;DHT22;9563;49.240;9.088;2022-11-09T07:58:10;11.40;99.90
18868;DHT22;9563;49.240;9.088;2022-11-09T08:00:38;11.40;99.90
18868;DHT22;9563;49.240;9.088;2022-11-09T08:03:07;11.40;99.90
18868;DHT22;9563;49.240;9.088;2022-11-09T08:05:34;11.40;99.90
18868;DHT22;9563;49.240;9.088;2022-11-09T08:08:03;11.40;99.90
18868;DHT22;9563;49.240;9.088;2022-11-09T08:10:31;11.40;99.90
18868;DHT22;9563;49.240;9.088;2022-11-09T08:13:00;11.40;99.90
18868;DHT22;9563;49.240;9.088;2022-11-09T08:15:28;11.40;99.90
18868;DHT22;9563;49.240;9.088;2022-11-09T08:17:58;11.40;99.90
18868;DHT22;9563;49.240;9.088;2022-11-09T08:20:29;11.40;99.90
18868;DHT22;9563;49.240;9.088;2022-11-09T08:22:56;11.40;99.90
18868;DHT22;9563;49.240;9.088;2022-11-09T08:25:23;11.40;99.90
18868;DHT22;9563;49.240;9.088;2022-11-09T08:27:50;11.40;99.90
18868;DHT22;9563;49.240;9.088;2022-11-09T08:30:18;11.40;99.90
18868;DHT22;9563;49.240;9.088;2022-11-09T08:32:46;11.40;99.90
18868;DHT22;9563;49.240;9.088;2022-11-09T08:35:15;11.40;99.90
18868;DHT22;9563;49.240;9.088;2022-11-09T08:37:45;11.40;99.90
18868;DHT22;9563;49.240;9.088;2022-11-09T08:40:13;11.40;99.90
18868;DHT22;9563;49.240;9.088;2022-11-09T08:42:40;11.50;99.90
18868;DHT22;9563;49.240;9.088;2022-11-09T08:45:08;11.50;99.90
18868;DHT22;9563;49.240;9.088;2022-11-09T08:47:36;11.50;99.90
18868;DHT22;9563;49.240;9.088;2022-11-09T08:50:03;11.50;99.90
18868;DHT22;9563;49.240;9.088;2022-11-09T08:52:30;11.50;99.90
18868;DHT22;9563;49.240;9.088;2022-11-09T08:54:59;11.60;99.90
18868;DHT22;9563;49.240;9.088;2022-11-09T08:57:26;11.60;99.90
18868;DHT22;9563;49.240;9.088;2022-11-09T08:59:54;11.60;99.90
18868;DHT22;9563;49.240;9.088;2022-11-09T09:02:21;11.60;99.90
18868;DHT22;9563;49.240;9.088;2022-11-09T09:04:48;11.60;99.90
18868;DHT22;9563;49.240;9.088;2022-11-09T09:07:15;11.60;99.90
18868;DHT22;9563;49.240;9.088;2022-11-09T09:09:43;11.70;99.90
18868;DHT22;9563;49.240;9.088;2022-11-09T09:12:12;11.70;99.90
18868;DHT22;9563;49.240;9.088;2022-11-09T09:14:39;11.70;99.90
18868;DHT22;9563;49.240;9.088;2022-11-09T09:17:06;11.70;99.90
18868;DHT22;9563;49.240;9.088;2022-11-09T09:19:33;11.80;99.90
18868;DHT22;9563;49.240;9.088;2022-11-09T09:22:00;11.80;99.90
18868;DHT22;9563;49.240;9.088;2022-11-09T09:24:27;11.90;99.90
18868;DHT22;9563;49.240;9.088;2022-11-09T09:26:56;12.00;99.90
18868;DHT22;9563;49.240;9.088;2022-11-09T09:29:24;12.00;99.90
18868;DHT22;9563;49.240;9.088;2022-11-09T09:31:51;12.10;99.90
18868;DHT22;9563;49.240;9.088;2022-11-09T09:34:19;12.20;99.90
18868;DHT22;9563;49.240;9.088;2022-11-09T09:36:46;12.20;99.90
18868;DHT22;9563;49.240;9.088;2022-11-09T09:39:13;12.30;99.90
18868;DHT22;9563;49.240;9.088;2022-11-09T09:41:45;12.40;99.90
18868;DHT22;9563;49.240;9.088;2022-11-09T09:44:22;12.50;99.90
18868;DHT22;9563;49.240;9.088;2022-11-09T09:46:56;12.70;99.90
18868;DHT22;9563;49.240;9.088;2022-11-09T09:49:27;13.00;99.90
18868;DHT22;9563;49.240;9.088;2022-11-09T09:52:00;13.50;99.90
18868;DHT22;9563;49.240;9.088;2022-11-09T09:54:32;14.10;99.90
18868;DHT22;9563;49.240;9.088;2022-11-09T09:56:59;14.50;99.90
18868;DHT22;9563;49.240;9.088;2022-11-09T09:59:33;15.00;99.90
18868;DHT22;9563;49.240;9.088;2022-11-09T10:02:11;15.20;99.90
18868;DHT22;9563;49.240;9.088;2022-11-09T10:04:41;15.30;99.90
18868;DHT22;9563;49.240;9.088;2022-11-09T10:07:11;15.30;99.90
18868;DHT22;9563;49.240;9.088;2022-11-09T10:10:02;15.50;99.90
18868;DHT22;9563;49.240;9.088;2022-11-09T10:12:44;15.60;99.90
18868;DHT22;9563;49.240;9.088;2022-11-09T10:15:23;15.40;99.90
18868;DHT22;9563;49.240;9.088;2022-11-09T10:18:13;15.30;99.90
18868;DHT22;9563;49.240;9.088;2022-11-09T10:21:08;15.30;99.90
18868;DHT22;9563;49.240;9.088;2022-11-09T10:23:54;15.20;99.90
18868;DHT22;9563;49.240;9.088;2022-11-09T10:26:28;15.00;99.90
18868;DHT22;9563;49.240;9.088;2022-11-09T10:28:58;14.90;99.90
18868;DHT22;9563;49.240;9.088;2022-11-09T10:31:30;14.90;99.90
18868;DHT22;9563;49.240;9.088;2022-11-09T10:34:02;14.90;99.90
18868;DHT22;9563;49.240;9.088;2022-11-09T10:36:35;14.90;99.90
18868;DHT22;9563;49.240;9.088;2022-11-09T10:39:10;14.90;99.90
18868;DHT22;9563;49.240;9.088;2022-11-09T10:41:41;14.80;99.90
18868;DHT22;9563;49.240;9.088;2022-11-09T10:44:12;14.80;99.90
18868;DHT22;9563;49.240;9.088;2022-11-09T10:47:01;14.70;99.90
18868;DHT22;9563;49.240;9.088;2022-11-09T10:49:30;14.90;99.90
18868;DHT22;9563;49.240;9.088;2022-11-09T10:51:58;14.90;99.90
18868;DHT22;9563;49.240;9.088;2022-11-09T10:54:27;14.90;99.90
18868;DHT22;9563;49.240;9.088;2022-11-09T10:57:01;14.90;99.90
18868;DHT22;9563;49.240;9.088;2022-11-09T10:59:39;14.80;99.90
18868;DHT22;9563;49.240;9.088;2022-11-09T11:05:30;14.70;99.90
18868;DHT22;9563;49.240;9.088;2022-11-09T11:08:03;14.60;99.90
18868;DHT22;9563;49.240;9.088;2022-11-09T11:10:37;14.60;99.90
18868;DHT22;9563;49.240;9.088;2022-11-09T11:13:27;14.60;99.90
18868;DHT22;9563;49.240;9.088;2022-11-09T11:15:54;14.60;99.90
18868;DHT22;9563;49.240;9.088;2022-11-09T11:18:23;14.50;99.90
18868;DHT22;9563;49.240;9.088;2022-11-09T11:21:10;14.60;99.90
18868;DHT22;9563;49.240;9.088;2022-11-09T11:23:38;14.70;99.90
18868;DHT22;9563;49.240;9.088;2022-11-09T11:26:29;14.70;99.90
18868;DHT22;9563;49.240;9.088;2022-11-09T11:29:00;14.80;99.90
18868;DHT22;9563;49.240;9.088;2022-11-09T11:31:27;14.70;99.90
18868;DHT22;9563;49.240;9.088;2022-11-09T11:33:55;14.70;99.90
18868;DHT22;9563;49.240;9.088;2022-11-09T11:36:32;14.70;99.90
18868;DHT22;9563;49.240;9.088;2022-11-09T11:39:11;14.70;99.90
18868;DHT22;9563;49.240;9.088;2022-11-09T11:42:01;14.70;99.90
18868;DHT22;9563;49.240;9.088;2022-11-09T11:44:45;14.70;99.90
18868;DHT22;9563;49.240;9.088;2022-11-09T11:47:18;14.60;99.90
18868;DHT22;9563;49.240;9.088;2022-11-09T11:50:20;14.60;99.90
18868;DHT22;9563;49.240;9.088;2022-11-09T11:53:01;14.60;99.90
18868;DHT22;9563;49.240;9.088;2022-11-09T11:55:45;14.60;99.90
18868;DHT22;9563;49.240;9.088;2022-11-09T11:58:25;14.60;99.90
18868;DHT22;9563;49.240;9.088;2022-11-09T12:00:58;14.60;99.90
18868;DHT22;9563;49.240;9.088;2022-11-09T12:03:41;14.60;99.90
18868;DHT22;9563;49.240;9.088;2022-11-09T12:06:27;14.60;99.90
18868;DHT22;9563;49.240;9.088;2022-11-09T12:09:10;14.60;99.90
18868;DHT22;9563;49.240;9.088;2022-11-09T12:11:50;14.50;99.90
18868;DHT22;9563;49.240;9.088;2022-11-09T12:14:30;14.50;99.90
18868;DHT22;9563;49.240;9.088;2022-11-09T12:17:06;14.60;99.90
18868;DHT22;9563;49.240;9.088;2022-11-09T12:19:57;14.60;99.90
18868;DHT22;9563;49.240;9.088;2022-11-09T12:22:33;14.60;99.90
18868;DHT22;9563;49.240;9.088;2022-11-09T12:25:12;14.70;99.90
18868;DHT22;9563;49.240;9.088;2022-11-09T12:28:06;14.70;99.90
18868;DHT22;9563;49.240;9.088;2022-11-09T12:30:46;14.70;99.90
18868;DHT22;9563;49.240;9.088;2022-11-09T12:33:22;14.60;99.90
18868;DHT22;9563;49.240;9.088;2022-11-09T12:35:57;14.60;99.90
18868;DHT22;9563;49.240;9.088;2022-11-09T12:38:29;14.50;99.90
18868;DHT22;9563;49.240;9.088;2022-11-09T12:41:00;14.50;99.90
18868;DHT22;9563;49.240;9.088;2022-11-09T12:43:33;14.50;99.90
18868;DHT22;9563;49.240;9.088;2022-11-09T12:46:05;14.50;99.90
18868;DHT22;9563;49.240;9.088;2022-11-09T12:48:33;14.40;99.90
18868;DHT22;9563;49.240;9.088;2022-11-09T12:51:02;14.50;99.90
18868;DHT22;9563;49.240;9.088;2022-11-09T12:53:33;14.50;99.90
18868;DHT22;9563;49.240;9.088;2022-11-09T12:56:04;14.50;99.90
18868;DHT22;9563;49.240;9.088;2022-11-09T12:58:35;14.50;99.90
18868;DHT22;9563;49.240;9.088;2022-11-09T13:01:03;14.50;99.90
18868;DHT22;9563;49.240;9.088;2022-11-09T13:03:33;14.50;99.90
18868;DHT22;9563;49.240;9.088;2022-11-09T13:06:18;14.50;99.90
18868;DHT22;9563;49.240;9.088;2022-11-09T13:08:59;14.50;99.90
18868;DHT22;9563;49.240;9.088;2022-11-09T13:11:35;14.40;99.90
18868;DHT22;9563;49.240;9.088;2022-11-09T13:14:34;14.40;99.90
18868;DHT22;9563;49.240;9.088;2022-11-09T13:20:37;14.30;99.90
18868;DHT22;9563;49.240;9.088;2022-11-09T13:23:24;14.30;99.90
18868;DHT22;9563;49.240;9.088;2022-11-09T13:25:54;14.30;99.90
18868;DHT22;9563;49.240;9.088;2022-11-09T13:34:46;14.10;99.90
18868;DHT22;9563;49.240;9.088;2022-11-09T13:37:44;14.10;99.90
18868;DHT22;9563;49.240;9.088;2022-11-09T13:40:38;14.10;99.90
18868;DHT22;9563;49.240;9.088;2022-11-09T13:43:17;14.00;99.90
18868;DHT22;9563;49.240;9.088;2022-11-09T13:45:46;14.00;99.90
18868;DHT22;9563;49.240;9.088;2022-11-09T13:48:40;14.00;99.90
18868;DHT22;9563;49.240;9.088;2022-11-09T13:51:10;14.00;99.90
18868;DHT22;9563;49.240;9.088;2022-11-09T13:53:51;14.10;99.90
18868;DHT22;9563;49.240;9.088;2022-11-09T13:56:25;14.10;99.90
18868;DHT22;9563;49.240;9.088;2022-11-09T13:58:56;14.10;99.90
18868;DHT22;9563;49.240;9.088;2022-11-09T14:01:26;14.10;99.90
18868;DHT22;9563;49.240;9.088;2022-11-09T14:03:58;14.00;99.90
18868;DHT22;9563;49.240;9.088;2022-11-09T14:06:27;14.00;99.90
18868;DHT22;9563;49.240;9.088;2022-11-09T14:08:55;14.00;99.90
18868;DHT22;9563;49.240;9.088;2022-11-09T14:11:37;14.00;99.90
18868;DHT22;9563;49.240;9.088;2022-11-09T14:17:16;14.00;99.90
18868;DHT22;9563;49.240;9.088;2022-11-09T14:19:53;14.00;99.90
18868;DHT22;9563;49.240;9.088;2022-11-09T14:22:25;14.00;99.90
18868;DHT22;9563;49.240;9.088;2022-11-09T14:24:55;14.00;99.90
18868;DHT22;9563;49.240;9.088;2022-11-09T14:27:22;14.00;99.90
18868;DHT22;9563;49.240;9.088;2022-11-09T14:29:51;14.00;99.90
18868;DHT22;9563;49.240;9.088;2022-11-09T14:32:25;13.90;99.90
18868;DHT22;9563;49.240;9.088;2022-11-09T14:35:17;13.90;99.90
18868;DHT22;9563;49.240;9.088;2022-11-09T14:37:45;13.90;99.90
18868;DHT22;9563;49.240;9.088;2022-11-09T14:42:49;13.90;99.90
18868;DHT22;9563;49.240;9.088;2022-11-09T14:45:18;13.90;99.90
18868;DHT22;9563;49.240;9.088;2022-11-09T14:47:51;13.90;99.90
18868;DHT22;9563;49.240;9.088;2022-11-09T14:50:25;13.90;99.90
18868;DHT22;9563;49.240;9.088;2022-11-09T14:52:53;13.80;99.90
18868;DHT22;9563;49.240;9.088;2022-11-09T14:55:24;13.80;99.90
18868;DHT22;9563;49.240;9.088;2022-11-09T14:57:53;13.80;99.90
18868;DHT22;9563;49.240;9.088;2022-11-09T15:00:26;13.80;99.90
18868;DHT22;9563;49.240;9.088;2022-11-09T15:02:54;13.80;99.90
18868;DHT22;9563;49.240;9.088;2022-11-09T15:05:35;13.70;99.90
18868;DHT22;9563;49.240;9.088;2022-11-09T15:08:11;13.70;99.90
18868;DHT22;9563;49.240;9.088;2022-11-09T15:10:39;13.70;99.90
18868;DHT22;9563;49.240;9.088;2022-11-09T15:13:06;13.70;99.90
18868;DHT22;9563;49.240;9.088;2022-11-09T15:15:34;13.60;99.90
18868;DHT22;9563;49.240;9.088;2022-11-09T15:18:03;13.60;99.90
18868;DHT22;9563;49.240;9.088;2022-11-09T15:20:33;13.60;99.90
18868;DHT22;9563;49.240;9.088;2022-11-09T15:23:02;13.50;99.90
18868;DHT22;9563;49.240;9.088;2022-11-09T15:25:31;13.50;99.90
18868;DHT22;9563;49.240;9.088;2022-11-09T15:28:02;13.50;99.90
18868;DHT22;9563;49.240;9.088;2022-11-09T15:30:32;13.50;99.90
18868;DHT22;9563;49.240;9.088;2022-11-09T15:33:09;13.50;99.90
18868;DHT22;9563;49.240;9.088;2022-11-09T15:35:47;13.50;99.90
18868;DHT22;9563;49.240;9.088;2022-11-09T15:38:35;13.40;99.90
18868;DHT22;9563;49.240;9.088;2022-11-09T15:41:05;13.40;99.90
18868;DHT22;9563;49.240;9.088;2022-11-09T15:43:34;13.40;99.90
18868;DHT22;9563;49.240;9.088;2022-11-09T15:46:03;13.30;99.90
18868;DHT22;9563;49.240;9.088;2022-11-09T15:48:30;13.30;99.90
18868;DHT22;9563;49.240;9.088;2022-11-09T15:50:59;13.30;99.90
18868;DHT22;9563;49.240;9.088;2022-11-09T15:53:26;13.30;99.90
18868;DHT22;9563;49.240;9.088;2022-11-09T15:55:53;13.30;99.90
18868;DHT22;9563;49.240;9.088;2022-11-09T15:58:20;13.20;99.90
18868;DHT22;9563;49.240;9.088;2022-11-09T16:00:47;13.20;99.90
18868;DHT22;9563;49.240;9.088;2022-11-09T16:03:14;13.20;99.90
18868;DHT22;9563;49.240;9.088;2022-11-09T16:05:42;13.20;99.90
18868;DHT22;9563;49.240;9.088;2022-11-09T16:08:11;13.20;99.90
18868;DHT22;9563;49.240;9.088;2022-11-09T16:10:39;13.20;99.90
18868;DHT22;9563;49.240;9.088;2022-11-09T16:13:06;13.10;99.90
18868;DHT22;9563;49.240;9.088;2022-11-09T16:15:35;13.20;99.90
18868;DHT22;9563;49.240;9.088;2022-11-09T16:18:03;13.10;99.90
18868;DHT22;9563;49.240;9.088;2022-11-09T16:20:30;13.10;99.90
18868;DHT22;9563;49.240;9.088;2022-11-09T16:22:57;13.10;99.90
18868;DHT22;9563;49.240;9.088;2022-11-09T16:25:26;13.20;99.90